Star Helena — V7KJ9 — position and weather

sailwx.info

Track history (hours):
 
Tides and Currents Weather Stations Pressure Air Temp Water Temp Dewpoint Dewpoint Depression Visibility Wind Speed Wind Dir Waves Ship Positions

Star Helena

Last reported at 2016-Jun-21 00:33 UTC. Time now 2016-Jun-30 03:18 UTC.
Position N 30°55' E 032°19'.
Warning: this ship's position is 9 days out of date.

Length 229 m; draft 11.8 m.

Type: Cargo ship. MMSI: 538002630.

Date/timePositionNaut miles runAvg speedWind from/ knotsBaromVisibWave heightAir tempDewpointWater temp
2016-Jun-21 00:33N 30°55' E 032°19'13 9.5
2016-Jun-20 23:10N 31°08' E 032°18'8 8.3
2016-Jun-20 22:16N 31°16' E 032°19'6 0.6
2016-Jun-20 12:08N 31°22' E 032°18'0 0.0
2016-Jun-20 11:20N 31°22' E 032°18'0 0.0
2016-Jun-20 10:32N 31°22' E 032°18'0 0.0
2016-Jun-20 08:32N 31°22' E 032°18'4 0.5
2016-Jun-20 00:24N 31°26' E 032°17'10 9.9
2016-Jun-19 23:24N 31°34' E 032°10'1011.5
2016-Jun-19 22:31N 31°41' E 032°01'1212.3
2016-Jun-19 21:33N 31°49' E 031°51'9713.1
2016-Jun-19 14:07N 33°01' E 030°34'46812.1
2016-Jun-17 23:16N 39°47' E 025°44'1112.7
2016-Jun-17 22:26N 39°56' E 025°51'1213.0
2016-Jun-17 21:29N 40°01' E 026°06'412 9.8
2016-Jun-16 03:32N 45°46' E 031°16'42 9.8
2016-Jun-15 23:19N 46°19' E 030°40'0 0.0
2016-Jun-14 19:29N 46°19' E 030°40'0 0.0
2016-Jun-14 18:32N 46°19' E 030°40'0 0.0
2016-Jun-14 15:29N 46°19' E 030°40'0 0.0
2016-Jun-14 14:17N 46°19' E 030°40'0 0.0
2016-Jun-14 13:29N 46°19' E 030°40'0 0.0
2016-Jun-14 12:29N 46°19' E 030°40'0 0.0
2016-Jun-14 11:32N 46°19' E 030°40'0 0.0
2016-Jun-14 09:29N 46°19' E 030°40'0 0.0
2016-Jun-14 08:26N 46°19' E 030°40'0 0.0
2016-Jun-14 07:32N 46°19' E 030°40'0 0.0
2016-Jun-14 05:32N 46°19' E 030°40'0 0.0
2016-Jun-14 04:32N 46°19' E 030°40'0 0.0
2016-Jun-14 03:32N 46°19' E 030°40'0 0.0
2016-Jun-14 02:32N 46°19' E 030°40'0 0.0
2016-Jun-14 01:32N 46°19' E 030°40'0 0.0
2016-Jun-13 23:20N 46°19' E 030°40'0 0.0
2016-Jun-13 22:32N 46°19' E 030°40'0 0.0
2016-Jun-13 21:32N 46°19' E 030°40'0 0.0
2016-Jun-13 20:32N 46°19' E 030°40'0 0.0
2016-Jun-13 19:32N 46°19' E 030°40'0 0.0
2016-Jun-13 18:11N 46°19' E 030°40'0 0.0
2016-Jun-13 17:14N 46°19' E 030°40'0 0.0
2016-Jun-13 16:32N 46°19' E 030°40'0 0.0
2016-Jun-13 15:20N 46°19' E 030°40'0 0.0
2016-Jun-13 14:32N 46°19' E 030°40'0 0.0
2016-Jun-13 13:32N 46°19' E 030°40'0 0.0
2016-Jun-13 12:29N 46°19' E 030°40'0 0.0
2016-Jun-13 11:32N 46°19' E 030°40'0 0.0
2016-Jun-13 10:32N 46°19' E 030°40'0 0.0
2016-Jun-13 09:32N 46°19' E 030°40'0 0.0
2016-Jun-13 08:32N 46°19' E 030°40'0 0.0
2016-Jun-13 07:32N 46°19' E 030°40'0 0.0
2016-Jun-13 06:32N 46°19' E 030°40'0 0.0
2016-Jun-13 05:32N 46°19' E 030°40'0 0.0
2016-Jun-13 04:29N 46°19' E 030°40'0 0.0
2016-Jun-13 03:32N 46°19' E 030°40'0 0.0
2016-Jun-13 02:32N 46°19' E 030°40'0 0.0
2016-Jun-13 01:32N 46°19' E 030°40'0 0.0
2016-Jun-13 00:32N 46°19' E 030°40'0 0.0
2016-Jun-12 23:29N 46°19' E 030°40'0 0.0
2016-Jun-12 22:32N 46°19' E 030°40'0 0.0
2016-Jun-12 21:32N 46°19' E 030°40'0 0.0
2016-Jun-12 20:32N 46°19' E 030°40'0 0.0
2016-Jun-12 19:32N 46°19' E 030°40'0 0.0
2016-Jun-12 18:32N 46°19' E 030°40'0 0.0
2016-Jun-12 15:32N 46°19' E 030°40'0 0.0
2016-Jun-12 14:32N 46°19' E 030°40'0 0.0
2016-Jun-12 13:29N 46°19' E 030°40'0 0.0
2016-Jun-12 12:32N 46°19' E 030°40'0 0.0
2016-Jun-12 11:32N 46°19' E 030°40'0 0.0
2016-Jun-12 10:32N 46°19' E 030°40'0 0.0
2016-Jun-12 09:32N 46°19' E 030°40'0 0.0
2016-Jun-12 08:32N 46°19' E 030°40'0 0.0
2016-Jun-12 07:32N 46°19' E 030°40'0 0.0
2016-Jun-12 06:32N 46°19' E 030°40'0 0.0
2016-Jun-12 04:32N 46°19' E 030°40'0 0.0
2016-Jun-12 03:32N 46°19' E 030°40'0 0.0
2016-Jun-12 02:32N 46°19' E 030°40'0 0.0
2016-Jun-12 01:32N 46°19' E 030°40'0 0.0
2016-Jun-12 00:32N 46°19' E 030°40'0 0.0
2016-Jun-11 23:32N 46°19' E 030°40'0 0.0
2016-Jun-11 22:32N 46°19' E 030°40'0 0.0
2016-Jun-11 21:32N 46°19' E 030°40'0 0.0
2016-Jun-11 20:29N 46°19' E 030°40'0 0.0
2016-Jun-11 19:31N 46°19' E 030°40'0 0.0
2016-Jun-11 18:58N 46°19' E 030°40'0 0.0
2016-Jun-11 18:31N 46°19' E 030°40'0 0.0
2016-Jun-11 17:31N 46°19' E 030°40'0 0.0
2016-Jun-11 16:31N 46°19' E 030°40'0 0.0
2016-Jun-11 15:31N 46°19' E 030°40'0 0.0
2016-Jun-11 14:31N 46°19' E 030°40'0 0.0
2016-Jun-11 13:31N 46°19' E 030°40'0 0.0
2016-Jun-11 09:13N 46°19' E 030°40'0 0.0
2016-Jun-11 06:28N 46°19' E 030°40'0 0.0
2016-Jun-11 05:31N 46°19' E 030°40'0 0.0
2016-Jun-11 04:31N 46°19' E 030°40'0 0.0
2016-Jun-11 03:31N 46°19' E 030°40'0 0.0
2016-Jun-11 02:31N 46°19' E 030°40'0 0.0
2016-Jun-11 01:31N 46°19' E 030°40'  
Track history (hours):
 
Tides and Currents Weather Stations Pressure Air Temp Water Temp Dewpoint Dewpoint Depression Visibility Wind Speed Wind Dir Waves Ship Positions

Star Helena

Last reported at 2016-Jun-21 00:33 UTC. Time now 2016-Jun-30 03:18 UTC.
Position N 30°55' E 032°19'.
Warning: this ship's position is 9 days out of date.

Length 229 m; draft 11.8 m.

Type: Cargo ship. MMSI: 538002630.

Date/timePositionNaut miles runAvg speedWind from/ knotsBaromVisibWave heightAir tempDewpointWater temp
2016-Jun-21 00:33N 30°55' E 032°19'13 9.5
2016-Jun-20 23:10N 31°08' E 032°18'8 8.3
2016-Jun-20 22:16N 31°16' E 032°19'6 0.6
2016-Jun-20 12:08N 31°22' E 032°18'0 0.0
2016-Jun-20 11:20N 31°22' E 032°18'0 0.0
2016-Jun-20 10:32N 31°22' E 032°18'0 0.0
2016-Jun-20 08:32N 31°22' E 032°18'4 0.5
2016-Jun-20 00:24N 31°26' E 032°17'10 9.9
2016-Jun-19 23:24N 31°34' E 032°10'1011.5
2016-Jun-19 22:31N 31°41' E 032°01'1212.3
2016-Jun-19 21:33N 31°49' E 031°51'9713.1
2016-Jun-19 14:07N 33°01' E 030°34'46812.1
2016-Jun-17 23:16N 39°47' E 025°44'1112.7
2016-Jun-17 22:26N 39°56' E 025°51'1213.0
2016-Jun-17 21:29N 40°01' E 026°06'412 9.8
2016-Jun-16 03:32N 45°46' E 031°16'42 9.8
2016-Jun-15 23:19N 46°19' E 030°40'0 0.0
2016-Jun-14 19:29N 46°19' E 030°40'0 0.0
2016-Jun-14 18:32N 46°19' E 030°40'0 0.0
2016-Jun-14 15:29N 46°19' E 030°40'0 0.0
2016-Jun-14 14:17N 46°19' E 030°40'0 0.0
2016-Jun-14 13:29N 46°19' E 030°40'0 0.0
2016-Jun-14 12:29N 46°19' E 030°40'0 0.0
2016-Jun-14 11:32N 46°19' E 030°40'0 0.0
2016-Jun-14 09:29N 46°19' E 030°40'0 0.0
2016-Jun-14 08:26N 46°19' E 030°40'0 0.0
2016-Jun-14 07:32N 46°19' E 030°40'0 0.0
2016-Jun-14 05:32N 46°19' E 030°40'0 0.0
2016-Jun-14 04:32N 46°19' E 030°40'0 0.0
2016-Jun-14 03:32N 46°19' E 030°40'0 0.0
2016-Jun-14 02:32N 46°19' E 030°40'0 0.0
2016-Jun-14 01:32N 46°19' E 030°40'0 0.0
2016-Jun-13 23:20N 46°19' E 030°40'0 0.0
2016-Jun-13 22:32N 46°19' E 030°40'0 0.0
2016-Jun-13 21:32N 46°19' E 030°40'0 0.0
2016-Jun-13 20:32N 46°19' E 030°40'0 0.0
2016-Jun-13 19:32N 46°19' E 030°40'0 0.0
2016-Jun-13 18:11N 46°19' E 030°40'0 0.0
2016-Jun-13 17:14N 46°19' E 030°40'0 0.0
2016-Jun-13 16:32N 46°19' E 030°40'0 0.0
2016-Jun-13 15:20N 46°19' E 030°40'0 0.0
2016-Jun-13 14:32N 46°19' E 030°40'0 0.0
2016-Jun-13 13:32N 46°19' E 030°40'0 0.0
2016-Jun-13 12:29N 46°19' E 030°40'0 0.0
2016-Jun-13 11:32N 46°19' E 030°40'0 0.0
2016-Jun-13 10:32N 46°19' E 030°40'0 0.0
2016-Jun-13 09:32N 46°19' E 030°40'0 0.0
2016-Jun-13 08:32N 46°19' E 030°40'0 0.0
2016-Jun-13 07:32N 46°19' E 030°40'0 0.0
2016-Jun-13 06:32N 46°19' E 030°40'0 0.0
2016-Jun-13 05:32N 46°19' E 030°40'0 0.0
2016-Jun-13 04:29N 46°19' E 030°40'0 0.0
2016-Jun-13 03:32N 46°19' E 030°40'0 0.0
2016-Jun-13 02:32N 46°19' E 030°40'0 0.0
2016-Jun-13 01:32N 46°19' E 030°40'0 0.0
2016-Jun-13 00:32N 46°19' E 030°40'0 0.0
2016-Jun-12 23:29N 46°19' E 030°40'0 0.0
2016-Jun-12 22:32N 46°19' E 030°40'0 0.0
2016-Jun-12 21:32N 46°19' E 030°40'0 0.0
2016-Jun-12 20:32N 46°19' E 030°40'0 0.0
2016-Jun-12 19:32N 46°19' E 030°40'0 0.0
2016-Jun-12 18:32N 46°19' E 030°40'0 0.0
2016-Jun-12 15:32N 46°19' E 030°40'0 0.0
2016-Jun-12 14:32N 46°19' E 030°40'0 0.0
2016-Jun-12 13:29N 46°19' E 030°40'0 0.0
2016-Jun-12 12:32N 46°19' E 030°40'0 0.0
2016-Jun-12 11:32N 46°19' E 030°40'0 0.0
2016-Jun-12 10:32N 46°19' E 030°40'0 0.0
2016-Jun-12 09:32N 46°19' E 030°40'0 0.0
2016-Jun-12 08:32N 46°19' E 030°40'0 0.0
2016-Jun-12 07:32N 46°19' E 030°40'0 0.0
2016-Jun-12 06:32N 46°19' E 030°40'0 0.0
2016-Jun-12 04:32N 46°19' E 030°40'0 0.0
2016-Jun-12 03:32N 46°19' E 030°40'0 0.0
2016-Jun-12 02:32N 46°19' E 030°40'0 0.0
2016-Jun-12 01:32N 46°19' E 030°40'0 0.0
2016-Jun-12 00:32N 46°19' E 030°40'0 0.0
2016-Jun-11 23:32N 46°19' E 030°40'0 0.0
2016-Jun-11 22:32N 46°19' E 030°40'0 0.0
2016-Jun-11 21:32N 46°19' E 030°40'0 0.0
2016-Jun-11 20:29N 46°19' E 030°40'0 0.0
2016-Jun-11 19:31N 46°19' E 030°40'0 0.0
2016-Jun-11 18:58N 46°19' E 030°40'0 0.0
2016-Jun-11 18:31N 46°19' E 030°40'0 0.0
2016-Jun-11 17:31N 46°19' E 030°40'0 0.0
2016-Jun-11 16:31N 46°19' E 030°40'0 0.0
2016-Jun-11 15:31N 46°19' E 030°40'0 0.0
2016-Jun-11 14:31N 46°19' E 030°40'0 0.0
2016-Jun-11 13:31N 46°19' E 030°40'0 0.0
2016-Jun-11 09:13N 46°19' E 030°40'0 0.0
2016-Jun-11 06:28N 46°19' E 030°40'0 0.0
2016-Jun-11 05:31N 46°19' E 030°40'0 0.0
2016-Jun-11 04:31N 46°19' E 030°40'0 0.0
2016-Jun-11 03:31N 46°19' E 030°40'0 0.0
2016-Jun-11 02:31N 46°19' E 030°40'0 0.0
2016-Jun-11 01:31N 46°19' E 030°40'  

Dump ship's entire track history